Arvada, Wyoming
Current Conditions -  °F | °C
As of 1:53 PM on Saturday 22 Nov 2014 (Local Time) from KBYG Reporting Station
Clear Clear  
Wind Chill: 10°   Ceiling: Unl
Heat Index: 10°   Visibility: 10mi
Dew Point: -4°   Wind: 29mph
Humidity: 36%   Direction: 240°WSW
Pressure: 29.4"   Gusts: 40mph
Location:  44.65°N, 106.13°W
Report Text: KBYG 222053Z AUTO 24025G35KT 10SM CLR 10/M04 A2940 RMK AO2 PK WND 24035/2050 SLP947 T01001044 56019 $
Loading
Personal Weather Stations






























Interactive Weather Map New forecast layout! Learn more

10-Day Weather Forecast

Advertisements
Track Severe Weather on mobile